Terminal Aerodrome Forecast
Issued by NWS

Home | Current Version | Previous Version | Text Only | Print | Product List | Glossary On
Versions: 1 2 3 4 5 6 7 8 9 10 11
000
FTUS43 KEAX 102320
TAFMKC
TAF
KMKC 102320Z 1100/1124 26005KT P6SM SKC
     FM111500 29017G27KT P6SM SCT150
     FM111800 31020G30KT P6SM BKN100=

USA.gov is the U.S. government's official web portal to all federal, state and local government web resources and services.